createdAt,value
2024-03-13T00:01:08.442Z,97282.00
2024-03-13T00:03:37.863Z,97292.00
2024-03-13T00:06:05.634Z,97292.00
2024-03-13T00:08:32.715Z,97294.00
2024-03-13T00:10:59.738Z,97293.00
2024-03-13T00:13:28.930Z,97287.00
2024-03-13T00:15:58.484Z,97297.00
2024-03-13T00:18:25.495Z,97288.00
2024-03-13T00:20:52.327Z,97296.00
2024-03-13T00:23:19.556Z,97296.00
2024-03-13T00:25:46.609Z,97286.00
2024-03-13T00:28:13.519Z,97292.00
2024-03-13T00:30:41.903Z,97288.00
2024-03-13T00:33:09.432Z,97293.00
2024-03-13T00:35:37.187Z,97281.00
2024-03-13T00:38:05.339Z,97281.00
2024-03-13T00:40:33.170Z,97284.00
2024-03-13T00:43:00.085Z,97275.00
2024-03-13T00:45:28.575Z,97266.00
2024-03-13T00:47:55.961Z,97270.00
2024-03-13T00:50:23.889Z,97291.00
2024-03-13T00:52:51.470Z,97276.00
2024-03-13T00:55:18.727Z,97289.00
2024-03-13T00:57:47.605Z,97287.00
2024-03-13T01:00:19.178Z,97276.00
2024-03-13T01:02:46.268Z,97277.00
2024-03-13T01:05:16.371Z,97294.00
2024-03-13T01:07:49.041Z,97290.00
2024-03-13T01:10:16.063Z,97279.00
2024-03-13T01:12:43.285Z,97273.00
2024-03-13T01:15:10.645Z,97280.00
2024-03-13T01:17:37.995Z,97270.00
2024-03-13T01:20:05.781Z,97276.00
2024-03-13T01:22:35.462Z,97271.00
2024-03-13T01:25:02.507Z,97273.00
2024-03-13T01:27:29.669Z,97262.00
2024-03-13T01:29:56.578Z,97269.00
2024-03-13T01:32:24.314Z,97271.00
2024-03-13T01:34:51.239Z,97273.00
2024-03-13T01:37:36.700Z,97266.00
2024-03-13T01:40:05.764Z,97252.00
2024-03-13T01:42:51.111Z,97262.00
2024-03-13T01:46:08.427Z,97273.00
2024-03-13T01:48:56.210Z,97268.00
2024-03-13T01:51:42.712Z,97267.00
2024-03-13T01:54:28.261Z,97272.00
2024-03-13T01:57:03.955Z,97271.00
2024-03-13T01:59:39.966Z,97271.00
2024-03-13T02:02:25.969Z,97277.00
2024-03-13T02:04:54.680Z,97272.00
2024-03-13T02:07:25.755Z,97279.00
2024-03-13T02:09:53.268Z,97261.00
2024-03-13T02:12:20.190Z,97266.00
2024-03-13T02:14:47.012Z,97260.00
2024-03-13T02:17:14.094Z,97259.00
2024-03-13T02:19:41.983Z,97244.00
2024-03-13T02:22:09.073Z,97258.00
2024-03-13T02:24:36.001Z,97271.00
2024-03-13T02:27:12.628Z,97257.00
2024-03-13T02:29:42.816Z,97264.00
2024-03-13T02:32:12.123Z,97268.00
2024-03-13T02:34:42.566Z,97259.00
2024-03-13T02:37:09.757Z,97261.00
2024-03-13T02:39:37.462Z,97248.00
2024-03-13T02:42:04.366Z,97253.00
2024-03-13T02:44:31.454Z,97254.00
2024-03-13T02:46:58.265Z,97260.00
2024-03-13T02:49:25.224Z,97261.00
2024-03-13T02:51:52.134Z,97248.00
2024-03-13T02:54:19.217Z,97241.00
2024-03-13T02:56:49.638Z,97245.00
2024-03-13T02:59:19.047Z,97227.00
2024-03-13T03:01:45.989Z,97227.00
2024-03-13T03:04:13.002Z,97224.00
2024-03-13T03:06:40.115Z,97242.00
2024-03-13T03:09:07.078Z,97241.00
2024-03-13T03:11:33.986Z,97244.00
2024-03-13T03:14:01.082Z,97237.00
2024-03-13T03:16:29.562Z,97246.00
2024-03-13T03:18:56.467Z,97255.00
2024-03-13T03:21:24.204Z,97243.00
2024-03-13T03:23:51.158Z,97241.00
2024-03-13T03:26:21.572Z,97247.00
2024-03-13T03:28:48.925Z,97248.00
2024-03-13T03:31:15.804Z,97258.00
2024-03-13T03:33:43.380Z,97248.00
2024-03-13T03:36:10.307Z,97254.00
2024-03-13T03:38:37.164Z,97265.00
2024-03-13T03:41:04.166Z,97256.00
2024-03-13T03:43:31.276Z,97266.00
2024-03-13T03:45:58.471Z,97256.00
2024-03-13T03:48:25.685Z,97258.00
2024-03-13T03:50:52.617Z,97248.00
2024-03-13T03:53:19.731Z,97262.00
2024-03-13T03:55:47.222Z,97263.00
2024-03-13T03:58:14.025Z,97252.00
2024-03-13T04:00:41.396Z,97269.00
2024-03-13T04:03:10.552Z,97261.00
2024-03-13T04:05:37.382Z,97254.00
2024-03-13T04:08:05.932Z,97273.00
2024-03-13T04:10:33.018Z,97267.00
2024-03-13T04:13:00.835Z,97268.00
2024-03-13T04:15:27.771Z,97272.00
2024-03-13T04:17:54.650Z,97264.00
2024-03-13T04:20:23.183Z,97272.00
2024-03-13T04:22:50.487Z,97278.00
2024-03-13T04:25:19.337Z,97284.00
2024-03-13T04:27:46.811Z,97278.00
2024-03-13T04:30:15.344Z,97283.00
2024-03-13T04:32:42.218Z,97275.00
2024-03-13T04:35:09.174Z,97278.00
2024-03-13T04:37:36.716Z,97279.00
2024-03-13T04:40:04.204Z,97279.00
2024-03-13T04:42:31.109Z,97283.00
2024-03-13T04:44:59.843Z,97284.00
2024-03-13T04:47:27.120Z,97279.00
2024-03-13T04:49:53.980Z,97267.00
2024-03-13T04:52:22.183Z,97277.00
2024-03-13T04:54:49.198Z,97277.00
2024-03-13T04:57:16.607Z,97284.00
2024-03-13T04:59:43.646Z,97287.00
2024-03-13T05:02:10.837Z,97289.00
2024-03-13T05:04:37.828Z,97287.00
2024-03-13T05:07:05.120Z,97283.00
2024-03-13T05:09:32.234Z,97282.00
2024-03-13T05:11:59.071Z,97285.00
2024-03-13T05:14:25.936Z,97294.00
2024-03-13T05:16:53.509Z,97295.00
2024-03-13T05:19:20.631Z,97301.00
2024-03-13T05:21:47.739Z,97285.00
2024-03-13T05:24:14.970Z,97291.00
2024-03-13T05:26:45.080Z,97297.00
2024-03-13T05:29:12.005Z,97293.00
2024-03-13T05:31:38.929Z,97298.00
2024-03-13T05:34:06.530Z,97306.00
2024-03-13T05:36:34.070Z,97312.00
2024-03-13T05:39:01.108Z,97320.00
2024-03-13T05:41:28.293Z,97303.00
2024-03-13T05:43:55.207Z,97297.00
2024-03-13T05:46:24.099Z,97304.00
2024-03-13T05:48:51.225Z,97307.00
2024-03-13T05:51:18.257Z,97317.00
2024-03-13T05:53:45.998Z,97318.00
2024-03-13T05:56:13.045Z,97319.00
2024-03-13T05:58:42.805Z,97316.00
2024-03-13T06:01:16.200Z,97328.00
2024-03-13T06:03:43.269Z,97332.00
2024-03-13T06:06:12.664Z,97336.00
2024-03-13T06:08:39.578Z,97329.00
2024-03-13T06:11:06.739Z,97336.00
2024-03-13T06:13:34.110Z,97349.00
2024-03-13T06:16:01.409Z,97341.00
2024-03-13T06:18:28.616Z,97344.00
2024-03-13T06:20:55.682Z,97341.00
2024-03-13T06:23:24.928Z,97337.00
2024-03-13T06:25:53.985Z,97341.00
2024-03-13T06:28:39.551Z,97333.00
2024-03-13T06:31:06.472Z,97337.00
2024-03-13T06:33:33.601Z,97340.00
2024-03-13T06:36:01.607Z,97348.00
2024-03-13T06:38:28.661Z,97340.00
2024-03-13T06:40:55.514Z,97348.00
2024-03-13T06:43:22.367Z,97342.00
2024-03-13T06:45:50.653Z,97352.00
2024-03-13T06:48:17.782Z,97354.00
2024-03-13T06:50:44.773Z,97342.00
2024-03-13T06:53:12.074Z,97337.00
2024-03-13T06:55:39.135Z,97338.00
2024-03-13T06:58:06.158Z,97350.00
2024-03-13T07:00:34.226Z,97344.00
2024-03-13T07:03:03.162Z,97348.00
2024-03-13T07:05:30.211Z,97354.00
2024-03-13T07:07:57.775Z,97349.00
2024-03-13T07:10:24.816Z,97348.00
2024-03-13T07:12:52.018Z,97354.00
2024-03-13T07:15:19.793Z,97346.00
2024-03-13T07:17:46.845Z,97356.00
2024-03-13T07:20:15.366Z,97362.00
2024-03-13T07:22:42.595Z,97367.00
2024-03-13T07:25:13.460Z,97353.00
2024-03-13T07:27:40.909Z,97361.00
2024-03-13T07:30:08.671Z,97374.00
2024-03-13T07:32:36.386Z,97357.00
2024-03-13T07:35:05.027Z,97379.00
2024-03-13T07:37:32.905Z,97369.00
2024-03-13T07:40:00.044Z,97367.00
2024-03-13T07:42:27.136Z,97378.00
2024-03-13T07:44:55.460Z,97375.00
2024-03-13T07:47:22.978Z,97376.00
2024-03-13T07:49:50.621Z,97372.00
2024-03-13T07:52:18.193Z,97373.00
2024-03-13T07:54:45.124Z,97376.00
2024-03-13T07:57:14.525Z,97384.00
2024-03-13T07:59:46.105Z,97384.00
2024-03-13T08:02:13.980Z,97383.00
2024-03-13T08:04:40.941Z,97400.00
2024-03-13T09:07:42.394Z,97434.00
2024-03-13T09:10:13.667Z,97428.00
2024-03-13T09:12:40.857Z,97433.00
2024-03-13T09:15:08.468Z,97435.00
2024-03-13T09:17:36.143Z,97434.00
2024-03-13T09:20:03.761Z,97433.00
2024-03-13T09:22:30.866Z,97425.00
2024-03-13T09:24:57.758Z,97426.00
2024-03-13T09:27:24.987Z,97433.00
2024-03-13T09:29:53.336Z,97423.00
2024-03-13T09:32:22.801Z,97427.00
2024-03-13T09:34:51.839Z,97445.00
2024-03-13T09:37:20.244Z,97430.00
2024-03-13T09:39:47.098Z,97431.00
2024-03-13T09:42:18.621Z,97440.00
2024-03-13T09:44:48.419Z,97456.00
2024-03-13T09:47:17.151Z,97446.00
2024-03-13T09:49:45.703Z,97451.00
2024-03-13T09:52:16.845Z,97444.00
2024-03-13T09:54:44.574Z,97450.00
2024-03-13T09:57:13.432Z,97450.00
2024-03-13T09:59:40.898Z,97449.00
2024-03-13T10:02:19.789Z,97445.00
2024-03-13T10:04:54.650Z,97460.00
2024-03-13T10:07:23.059Z,97454.00
2024-03-13T10:09:50.313Z,97453.00
2024-03-13T10:12:22.625Z,97452.00
2024-03-13T10:14:54.244Z,97459.00
2024-03-13T10:17:28.989Z,97451.00
2024-03-13T10:19:57.150Z,97455.00
2024-03-13T10:22:26.872Z,97458.00
2024-03-13T10:24:58.038Z,97464.00
2024-03-13T10:27:25.735Z,97461.00
2024-03-13T10:29:54.834Z,97458.00
2024-03-13T10:32:23.930Z,97463.00
2024-03-13T10:34:51.493Z,97472.00
2024-03-13T10:37:20.122Z,97465.00
2024-03-13T10:39:47.087Z,97454.00
2024-03-13T10:42:14.172Z,97455.00
2024-03-13T10:44:41.607Z,97464.00
2024-03-13T10:47:10.017Z,97463.00
2024-03-13T10:49:37.392Z,97465.00
2024-03-13T10:52:09.969Z,97464.00
2024-03-13T10:54:36.921Z,97459.00
2024-03-13T10:57:05.556Z,97456.00
2024-03-13T10:59:33.507Z,97453.00
2024-03-13T11:02:00.421Z,97458.00
2024-03-13T11:04:28.575Z,97449.00
2024-03-13T11:06:55.601Z,97461.00
2024-03-13T11:09:22.874Z,97461.00
2024-03-13T11:11:54.017Z,97448.00
2024-03-13T11:14:21.870Z,97451.00
2024-03-13T11:16:56.775Z,97450.00
2024-03-13T11:19:33.758Z,97474.00
2024-03-13T11:22:05.029Z,97460.00
2024-03-13T11:24:33.641Z,97478.00
2024-03-13T11:27:24.006Z,97460.00
2024-03-13T11:29:56.025Z,97463.00
2024-03-13T11:32:25.383Z,97457.00
2024-03-13T11:34:53.005Z,97461.00
2024-03-13T11:37:22.269Z,97456.00
2024-03-13T11:39:50.707Z,97456.00
2024-03-13T11:42:18.359Z,97464.00
2024-03-13T11:44:51.197Z,97455.00
2024-03-13T11:47:24.265Z,97451.00
2024-03-13T11:50:00.396Z,97446.00
2024-03-13T11:52:27.326Z,97455.00
2024-03-13T11:54:59.307Z,97452.00
2024-03-13T11:57:26.735Z,97456.00
2024-03-13T11:59:56.119Z,97460.00
2024-03-13T12:02:32.545Z,97454.00
2024-03-13T12:05:12.764Z,97440.00
2024-03-13T12:07:46.506Z,97454.00
2024-03-13T12:10:21.717Z,97457.00
2024-03-13T12:12:49.024Z,97450.00
2024-03-13T12:15:20.543Z,97456.00
2024-03-13T12:17:52.752Z,97446.00
2024-03-13T12:20:23.159Z,97441.00
2024-03-13T12:22:51.271Z,97441.00
2024-03-13T12:25:21.582Z,97436.00
2024-03-13T12:27:52.692Z,97448.00
2024-03-13T12:30:22.383Z,97443.00
2024-03-13T12:32:58.642Z,97449.00
2024-03-13T12:35:26.362Z,97441.00
2024-03-13T12:37:58.738Z,97445.00
2024-03-13T12:40:26.363Z,97447.00
2024-03-13T12:42:53.900Z,97422.00
2024-03-13T12:45:21.985Z,97427.00
2024-03-13T12:47:49.521Z,97448.00
2024-03-13T12:50:19.127Z,97440.00
2024-03-13T12:52:51.140Z,97430.00
2024-03-13T12:55:18.793Z,97430.00
2024-03-13T12:57:49.251Z,97430.00
2024-03-13T13:00:19.925Z,97447.00
2024-03-13T13:02:49.110Z,97440.00
2024-03-13T13:05:16.893Z,97436.00
2024-03-13T13:07:51.840Z,97439.00
2024-03-13T13:10:22.640Z,97432.00
2024-03-13T13:12:50.131Z,97437.00
2024-03-13T13:15:17.789Z,97435.00
2024-03-13T13:17:45.455Z,97434.00
2024-03-13T13:20:14.546Z,97432.00
2024-03-13T13:22:42.238Z,97429.00
2024-03-13T13:25:09.860Z,97426.00
2024-03-13T13:27:38.297Z,97423.00
2024-03-13T13:30:05.957Z,97441.00
2024-03-13T13:32:32.873Z,97427.00
2024-03-13T13:34:59.832Z,97423.00
2024-03-13T13:37:27.460Z,97426.00
2024-03-13T13:39:54.453Z,97425.00
2024-03-13T13:42:21.563Z,97425.00
2024-03-13T13:44:52.381Z,97426.00
2024-03-13T13:47:22.107Z,97426.00
2024-03-13T13:49:49.005Z,97432.00
2024-03-13T13:52:15.835Z,97427.00
2024-03-13T13:54:42.814Z,97434.00
2024-03-13T13:57:10.771Z,97422.00
2024-03-13T13:59:37.899Z,97446.00
2024-03-13T14:02:06.084Z,97432.00
2024-03-13T14:04:33.637Z,97439.00
2024-03-13T14:07:03.619Z,97440.00
2024-03-13T14:09:33.083Z,97435.00
2024-03-13T14:11:59.984Z,97431.00
2024-03-13T14:14:26.854Z,97435.00
2024-03-13T14:16:55.219Z,97445.00
2024-03-13T14:19:23.530Z,97434.00
2024-03-13T14:21:50.589Z,97444.00
2024-03-13T14:24:17.539Z,97450.00
2024-03-13T14:26:44.670Z,97440.00
2024-03-13T14:29:14.461Z,97439.00
2024-03-13T14:31:43.561Z,97446.00
2024-03-13T14:34:11.475Z,97446.00
2024-03-13T14:36:39.145Z,97445.00
2024-03-13T14:39:14.930Z,97444.00
2024-03-13T14:41:43.238Z,97459.00
2024-03-13T14:44:10.663Z,97453.00
2024-03-13T14:46:40.608Z,97446.00
2024-03-13T14:49:09.880Z,97445.00
2024-03-13T14:51:36.998Z,97456.00
2024-03-13T14:54:04.184Z,97456.00
2024-03-13T14:56:31.049Z,97445.00
2024-03-13T14:58:57.962Z,97448.00
2024-03-13T15:01:24.780Z,97440.00
2024-03-13T15:03:55.247Z,97445.00
2024-03-13T15:06:22.830Z,97452.00
2024-03-13T15:08:49.758Z,97448.00
2024-03-13T15:11:16.692Z,97451.00
2024-03-13T15:13:47.848Z,97455.00
2024-03-13T15:16:15.981Z,97444.00
2024-03-13T15:18:45.402Z,97445.00
2024-03-13T15:21:13.424Z,97449.00
2024-03-13T15:23:40.703Z,97458.00
2024-03-13T15:26:07.802Z,97434.00
2024-03-13T15:28:36.026Z,97438.00
2024-03-13T15:31:03.772Z,97434.00
2024-03-13T15:33:35.140Z,97437.00
2024-03-13T15:36:02.378Z,97439.00
2024-03-13T15:38:29.252Z,97450.00
2024-03-13T15:40:56.074Z,97449.00
2024-03-13T15:43:23.147Z,97443.00
2024-03-13T15:45:49.988Z,97453.00
2024-03-13T15:48:16.954Z,97451.00
2024-03-13T15:50:46.163Z,97450.00
2024-03-13T15:53:12.981Z,97456.00
2024-03-13T15:55:39.794Z,97454.00
2024-03-13T15:58:06.791Z,97438.00
2024-03-13T16:00:34.250Z,97450.00
2024-03-13T16:03:05.500Z,97445.00
2024-03-13T16:05:33.971Z,97442.00
2024-03-13T16:08:23.944Z,97438.00
2024-03-13T16:10:51.080Z,97436.00
2024-03-13T16:13:19.759Z,97439.00
2024-03-13T16:15:46.571Z,97448.00
2024-03-13T16:18:13.496Z,97451.00
2024-03-13T16:20:41.417Z,97433.00
2024-03-13T16:23:08.553Z,97426.00
2024-03-13T16:25:35.363Z,97434.00
2024-03-13T16:28:03.705Z,97448.00
2024-03-13T16:30:30.630Z,97439.00
2024-03-13T16:32:58.100Z,97432.00
2024-03-13T16:35:25.634Z,97439.00
2024-03-13T16:37:52.440Z,97441.00
2024-03-13T16:40:19.760Z,97438.00
2024-03-13T16:42:46.817Z,97440.00
2024-03-13T16:45:16.077Z,97444.00
2024-03-13T16:47:44.117Z,97440.00
2024-03-13T16:50:15.816Z,97451.00
2024-03-13T16:52:43.643Z,97448.00
2024-03-13T16:55:12.298Z,97455.00
2024-03-13T16:57:41.413Z,97458.00
2024-03-13T17:00:11.271Z,97450.00
2024-03-13T17:02:39.447Z,97453.00
2024-03-13T17:05:07.992Z,97455.00
2024-03-13T17:07:34.979Z,97452.00
2024-03-13T17:10:03.525Z,97467.00
2024-03-13T17:12:30.352Z,97458.00
2024-03-13T17:14:57.683Z,97467.00
2024-03-13T17:17:25.692Z,97471.00
2024-03-13T17:19:52.929Z,97465.00
2024-03-13T17:22:22.352Z,97479.00
2024-03-13T17:24:49.284Z,97480.00
2024-03-13T17:27:16.198Z,97472.00
2024-03-13T17:29:45.249Z,97480.00
2024-03-13T17:32:13.632Z,97482.00
2024-03-13T17:34:40.884Z,97477.00
2024-03-13T17:37:08.430Z,97478.00
2024-03-13T17:39:35.421Z,97469.00
2024-03-13T17:42:05.588Z,97478.00
2024-03-13T17:44:34.363Z,97479.00
2024-03-13T17:47:01.282Z,97476.00
2024-03-13T17:49:28.711Z,97488.00
2024-03-13T17:51:55.908Z,97502.00
2024-03-13T17:54:25.941Z,97491.00
2024-03-13T17:56:54.529Z,97494.00
2024-03-13T17:59:21.510Z,97481.00
2024-03-13T18:01:48.777Z,97504.00
2024-03-13T18:04:17.202Z,97500.00
2024-03-13T18:06:44.528Z,97505.00
2024-03-13T18:09:11.817Z,97498.00
2024-03-13T18:11:39.286Z,97494.00
2024-03-13T18:14:11.673Z,97497.00
2024-03-13T18:16:38.529Z,97502.00
2024-03-13T18:19:05.515Z,97514.00
2024-03-13T18:21:32.471Z,97518.00
2024-03-13T18:23:59.447Z,97498.00
2024-03-13T18:26:32.501Z,97504.00
2024-03-13T18:29:00.460Z,97499.00
2024-03-13T18:31:28.883Z,97502.00
2024-03-13T18:33:56.542Z,97492.00
2024-03-13T18:36:24.364Z,97510.00
2024-03-13T18:38:51.428Z,97515.00
2024-03-13T18:41:21.064Z,97500.00
2024-03-13T18:43:48.151Z,97516.00
2024-03-13T18:46:15.287Z,97515.00
2024-03-13T18:48:42.577Z,97509.00
2024-03-13T18:51:10.292Z,97515.00
2024-03-13T18:53:37.627Z,97523.00
2024-03-13T18:56:07.273Z,97515.00
2024-03-13T18:58:36.132Z,97505.00
2024-03-13T19:01:04.212Z,97526.00
2024-03-13T19:03:31.211Z,97523.00
2024-03-13T19:05:58.718Z,97525.00
2024-03-13T19:08:28.995Z,97499.00
2024-03-13T19:10:56.323Z,97524.00
2024-03-13T19:13:23.721Z,97529.00
2024-03-13T19:15:52.626Z,97520.00
2024-03-13T19:18:19.704Z,97519.00
2024-03-13T19:20:46.887Z,97515.00
2024-03-13T19:23:13.713Z,97521.00
2024-03-13T19:25:40.602Z,97525.00
2024-03-13T19:28:07.480Z,97511.00
2024-03-13T19:30:35.186Z,97524.00
2024-03-13T19:33:05.878Z,97529.00
2024-03-13T19:35:34.303Z,97519.00
2024-03-13T19:38:01.216Z,97521.00
2024-03-13T19:40:28.646Z,97517.00
2024-03-13T19:42:55.819Z,97521.00
2024-03-13T19:45:23.895Z,97521.00
2024-03-13T19:47:51.146Z,97528.00
2024-03-13T19:50:18.351Z,97526.00
2024-03-13T19:52:45.757Z,97524.00
2024-03-13T19:55:14.756Z,97533.00
2024-03-13T19:57:41.853Z,97526.00
2024-03-13T20:00:14.772Z,97532.00
2024-03-13T20:02:42.838Z,97533.00
2024-03-13T20:05:11.675Z,97531.00
2024-03-13T20:07:38.561Z,97530.00
2024-03-13T20:10:05.741Z,97535.00
2024-03-13T20:12:32.743Z,97524.00
2024-03-13T20:14:59.666Z,97525.00
2024-03-13T20:17:26.522Z,97529.00
2024-03-13T20:19:54.647Z,97531.00
2024-03-13T20:22:21.883Z,97533.00
2024-03-13T20:24:48.869Z,97522.00
2024-03-13T20:27:16.987Z,97528.00
2024-03-13T20:29:45.917Z,97533.00
2024-03-13T20:32:12.841Z,97530.00
2024-03-13T20:34:39.677Z,97529.00
2024-03-13T20:37:06.762Z,97524.00
2024-03-13T20:39:34.378Z,97533.00
2024-03-13T20:42:01.624Z,97529.00
2024-03-13T20:44:29.683Z,97528.00
2024-03-13T20:46:56.590Z,97521.00
2024-03-13T20:49:23.455Z,97519.00
2024-03-13T20:51:50.421Z,97528.00
2024-03-13T20:54:17.421Z,97531.00
2024-03-13T20:56:44.485Z,97522.00
2024-03-13T20:59:13.647Z,97524.00
2024-03-13T21:01:40.943Z,97526.00
2024-03-13T21:04:07.980Z,97516.00
2024-03-13T21:06:34.795Z,97503.00
2024-03-13T21:09:01.730Z,97515.00
2024-03-13T21:11:28.688Z,97499.00
2024-03-13T21:13:56.402Z,97499.00
2024-03-13T21:16:23.955Z,97504.00
2024-03-13T21:18:51.408Z,97511.00
2024-03-13T21:21:22.593Z,97509.00
2024-03-13T21:23:50.528Z,97510.00
2024-03-13T21:26:18.127Z,97501.00
2024-03-13T21:28:45.029Z,97500.00
2024-03-13T21:31:11.949Z,97501.00
2024-03-13T21:33:39.718Z,97511.00
2024-03-13T21:36:07.284Z,97493.00
2024-03-13T21:38:34.506Z,97500.00
2024-03-13T21:41:01.327Z,97499.00
2024-03-13T21:43:32.046Z,97497.00
2024-03-13T21:46:00.201Z,97489.00
2024-03-13T21:48:27.553Z,97502.00
2024-03-13T21:50:54.597Z,97503.00
2024-03-13T21:53:21.438Z,97499.00
2024-03-13T21:55:48.269Z,97483.00
2024-03-13T21:58:15.127Z,97490.00
2024-03-13T22:00:44.550Z,97488.00
2024-03-13T22:03:11.624Z,97483.00
2024-03-13T22:05:38.643Z,97476.00
2024-03-13T22:08:05.982Z,97485.00
2024-03-13T22:10:32.906Z,97481.00
2024-03-13T22:12:59.729Z,97475.00
2024-03-13T22:15:26.622Z,97482.00
2024-03-13T22:17:53.643Z,97481.00
2024-03-13T22:20:20.839Z,97472.00
2024-03-13T22:22:48.430Z,97476.00
2024-03-13T22:25:16.068Z,97468.00
2024-03-13T22:27:44.550Z,97482.00
2024-03-13T22:30:11.636Z,97478.00
2024-03-13T22:32:38.788Z,97475.00
2024-03-13T22:35:07.034Z,97490.00
2024-03-13T22:37:34.004Z,97479.00
2024-03-13T22:40:00.863Z,97488.00
2024-03-13T22:42:28.013Z,97481.00
2024-03-13T22:44:55.118Z,97484.00
2024-03-13T22:47:22.021Z,97485.00
2024-03-13T22:49:50.548Z,97468.00
2024-03-13T22:52:17.355Z,97483.00
2024-03-13T22:54:44.443Z,97476.00
2024-03-13T22:57:11.395Z,97455.00
2024-03-13T22:59:38.348Z,97486.00
2024-03-13T23:02:05.470Z,97473.00
2024-03-13T23:04:35.235Z,97472.00
2024-03-13T23:07:04.556Z,97464.00
2024-03-13T23:09:32.426Z,97467.00
2024-03-13T23:11:59.388Z,97484.00
2024-03-13T23:14:26.313Z,97459.00
2024-03-13T23:16:53.142Z,97461.00
2024-03-13T23:19:20.907Z,97472.00
2024-03-13T23:21:48.922Z,97475.00
2024-03-13T23:24:15.757Z,97464.00
2024-03-13T23:26:42.778Z,97447.00
2024-03-13T23:29:09.662Z,97464.00
2024-03-13T23:31:36.943Z,97475.00
2024-03-13T23:34:05.310Z,97479.00
2024-03-13T23:36:32.869Z,97467.00
2024-03-13T23:39:00.801Z,97465.00
2024-03-13T23:41:28.946Z,97472.00
2024-03-13T23:43:55.768Z,97452.00
2024-03-13T23:46:23.496Z,97447.00
2024-03-13T23:48:50.650Z,97451.00
2024-03-13T23:51:20.583Z,97452.00
2024-03-13T23:53:48.004Z,97450.00
2024-03-13T23:56:15.350Z,97454.00
2024-03-13T23:58:43.189Z,97462.00
